Terminal Aerodrome Forecast
Issued by NWS

Home | Current Version | Previous Version | Text Only | Print | Product List | Glossary On
Versions: 1 2 3 4 5 6 7 8 9 10 11 12
000
FTUS41 KLWX 281100
TAFMTN
TAF
KMTN 281133Z 2812/2912 24010KT P6SM FEW090
     FM281400 28014G25KT P6SM SCT050 BKN090
     FM290000 30012KT P6SM BKN050
     FM290400 27008KT P6SM BKN090
     FM290600 26005KT P6SM SCT250=

USA.gov is the U.S. government's official web portal to all federal, state and local government web resources and services.